Time;durP1;ratioP1;P1;durP2;ratioP2;P2;SDS_P1;SDS_P2;PMS_P1;PMS_P2;Temp;Humidity;BMP_temperature;BMP_pressure;BME280_temperature;BME280_humidity;BME280_pressure;Samples;Min_cycle;Max_cycle;Signal;HPM_P1;HPM_P2
2022/10/06 00:00:00;;;;;;;0.87;0.80;;;8.90;99.90;;;;;;5059729;28;20491;-78
2022/10/06 00:02:29;;;;;;;3.70;0.80;;;8.90;99.90;;;;;;5061138;28;20968;-78
2022/10/06 00:04:55;;;;;;;1.03;0.80;;;8.80;99.90;;;;;;5062539;28;20606;-78
2022/10/06 00:07:22;;;;;;;0.70;0.60;;;8.80;99.90;;;;;;5063314;28;20447;-78
2022/10/06 00:09:49;;;;;;;2.13;0.70;;;8.80;99.90;;;;;;5057365;28;20549;-78
2022/10/06 00:12:16;;;;;;;4.60;0.70;;;8.90;99.90;;;;;;5064535;28;20472;-78
2022/10/06 00:14:44;;;;;;;1.30;1.03;;;8.80;99.90;;;;;;5062071;28;20807;-78
2022/10/06 00:17:11;;;;;;;0.70;0.70;;;8.70;99.90;;;;;;5062849;28;21821;-78
2022/10/06 00:19:39;;;;;;;0.60;0.60;;;8.70;99.90;;;;;;5061046;28;20492;-78
2022/10/06 00:22:06;;;;;;;0.73;0.70;;;8.70;99.90;;;;;;5063741;28;20782;-78
2022/10/06 00:24:33;;;;;;;2.47;2.30;;;8.70;99.90;;;;;;5055149;28;20495;-79
2022/10/06 00:27:01;;;;;;;1.17;0.70;;;8.70;99.90;;;;;;5057930;28;20480;-78
2022/10/06 00:29:28;;;;;;;1.67;0.57;;;8.70;99.90;;;;;;5061329;28;20487;-78
2022/10/06 00:31:55;;;;;;;1.17;0.83;;;8.60;99.90;;;;;;5059674;28;20529;-78
2022/10/06 00:34:22;;;;;;;1.00;0.90;;;8.60;99.90;;;;;;5061228;28;20463;-78
2022/10/06 00:36:50;;;;;;;1.00;0.70;;;8.60;99.90;;;;;;5057858;28;20560;-79
2022/10/06 00:39:18;;;;;;;1.90;0.80;;;8.60;99.90;;;;;;5059940;28;20464;-78
2022/10/06 00:41:45;;;;;;;2.47;1.00;;;8.70;99.90;;;;;;5058394;28;20550;-78
2022/10/06 00:44:12;;;;;;;2.10;0.80;;;8.70;99.90;;;;;;5062750;28;20545;-78
2022/10/06 00:46:43;;;;;;;1.17;1.07;;;8.90;99.90;;;;;;5062699;28;20556;-78
2022/10/06 00:49:15;;;;;;;1.37;1.27;;;8.80;99.90;;;;;;5061007;28;20966;-79
2022/10/06 00:51:45;;;;;;;1.73;0.70;;;8.80;99.90;;;;;;5065638;28;20491;-78
2022/10/06 00:54:14;;;;;;;0.80;0.80;;;8.70;99.90;;;;;;5059991;28;20499;-78
2022/10/06 00:56:41;;;;;;;0.87;0.87;;;8.70;99.90;;;;;;5056808;28;20541;-78
2022/10/06 00:59:13;;;;;;;1.00;0.77;;;8.70;99.90;;;;;;5058214;28;20484;-78
2022/10/06 01:01:45;;;;;;;0.97;0.90;;;8.80;99.90;;;;;;5063713;28;20479;-78
2022/10/06 01:04:14;;;;;;;6.33;1.40;;;8.80;99.90;;;;;;5058742;28;21147;-78
2022/10/06 01:06:45;;;;;;;2.10;0.90;;;8.80;99.90;;;;;;5062940;28;20529;-78
2022/10/06 01:09:15;;;;;;;0.80;0.80;;;8.80;99.90;;;;;;5062305;28;20505;-79
2022/10/06 01:11:43;;;;;;;0.80;0.80;;;8.80;99.90;;;;;;5063146;28;20459;-78
2022/10/06 01:14:10;;;;;;;1.40;1.20;;;8.80;99.90;;;;;;5058715;28;20521;-78
2022/10/06 01:16:41;;;;;;;0.80;0.80;;;8.70;99.90;;;;;;5062884;28;20466;-78
2022/10/06 01:19:17;;;;;;;2.33;1.23;;;8.70;99.90;;;;;;5060967;28;20553;-79
2022/10/06 01:21:49;;;;;;;1.77;1.00;;;8.70;99.90;;;;;;5058087;28;20545;-78
2022/10/06 01:24:18;;;;;;;1.00;0.83;;;8.60;99.90;;;;;;5059618;28;21210;-78
2022/10/06 01:26:50;;;;;;;1.13;0.77;;;8.60;99.90;;;;;;5062803;28;20507;-78
2022/10/06 01:29:18;;;;;;;2.93;0.90;;;8.60;99.90;;;;;;5060611;28;20495;-78
2022/10/06 01:31:46;;;;;;;3.33;0.80;;;8.60;99.90;;;;;;5056768;28;20487;-79
2022/10/06 01:34:13;;;;;;;0.80;0.80;;;8.60;99.90;;;;;;5057686;28;21131;-78
2022/10/06 01:36:41;;;;;;;1.13;0.80;;;8.60;99.90;;;;;;5062464;28;20577;-79
2022/10/06 01:39:08;;;;;;;0.63;0.63;;;8.50;99.90;;;;;;5052242;28;21411;-79
2022/10/06 01:41:36;;;;;;;3.60;0.90;;;8.50;99.90;;;;;;5061262;28;20509;-79
2022/10/06 01:44:03;;;;;;;3.43;0.80;;;8.40;99.90;;;;;;5052459;28;20955;-79
2022/10/06 01:46:30;;;;;;;7.73;0.90;;;8.40;99.90;;;;;;5060742;28;20545;-78
2022/10/06 01:48:57;;;;;;;1.57;0.60;;;8.40;99.90;;;;;;5061215;28;20513;-78
2022/10/06 01:51:24;;;;;;;0.60;0.60;;;8.40;99.90;;;;;;5058771;28;20534;-78
2022/10/06 01:53:51;;;;;;;5.50;0.93;;;8.40;99.90;;;;;;5058855;28;20459;-79
2022/10/06 01:56:19;;;;;;;1.33;0.83;;;8.40;99.90;;;;;;5061756;28;21108;-78
2022/10/06 01:58:48;;;;;;;0.80;0.70;;;8.50;99.90;;;;;;5068518;28;20513;-79
2022/10/06 02:01:16;;;;;;;1.20;0.70;;;8.60;99.90;;;;;;5058877;28;20455;-79
2022/10/06 02:03:43;;;;;;;1.37;0.80;;;8.60;99.90;;;;;;5059113;28;20904;-78
2022/10/06 02:06:10;;;;;;;1.40;0.67;;;8.70;99.90;;;;;;5058551;28;20487;-79
2022/10/06 02:08:37;;;;;;;2.10;1.00;;;8.70;99.90;;;;;;5063090;28;20467;-78
2022/10/06 02:11:07;;;;;;;0.70;0.70;;;8.60;99.90;;;;;;5058830;28;20518;-78
2022/10/06 02:13:35;;;;;;;1.60;0.87;;;8.60;99.90;;;;;;5059003;28;20466;-79
2022/10/06 02:16:05;;;;;;;2.40;0.80;;;8.60;99.90;;;;;;5054520;28;20471;-79
2022/10/06 02:18:32;;;;;;;4.20;1.20;;;8.50;99.90;;;;;;5058802;28;20479;-79
2022/10/06 02:20:59;;;;;;;2.40;0.70;;;8.50;99.90;;;;;;5060261;28;20487;-79
2022/10/06 02:23:26;;;;;;;1.13;0.80;;;8.50;99.90;;;;;;5059850;28;20495;-78
2022/10/06 02:25:58;;;;;;;0.93;0.83;;;8.50;99.90;;;;;;5059655;28;20491;-79
2022/10/06 02:28:26;;;;;;;0.57;0.57;;;8.60;99.90;;;;;;5061111;28;20494;-78
2022/10/06 02:30:53;;;;;;;1.00;0.80;;;8.60;99.90;;;;;;5060504;28;20473;-78
2022/10/06 02:33:21;;;;;;;1.93;1.40;;;8.60;99.90;;;;;;5058876;28;20459;-79
2022/10/06 02:35:53;;;;;;;1.23;0.80;;;8.60;99.90;;;;;;5061147;28;20487;-79
2022/10/06 02:38:20;;;;;;;3.93;1.07;;;8.50;99.90;;;;;;5057516;28;20515;-78
2022/10/06 02:40:47;;;;;;;3.53;1.30;;;8.50;99.90;;;;;;5059336;28;20532;-78
2022/10/06 02:43:14;;;;;;;0.83;0.83;;;8.40;99.90;;;;;;5057839;28;20564;-79
2022/10/06 02:45:42;;;;;;;1.80;0.80;;;8.40;99.90;;;;;;5059604;28;20518;-79
2022/10/06 02:48:10;;;;;;;2.70;0.90;;;8.50;99.90;;;;;;5060035;28;20563;-78
2022/10/06 02:50:38;;;;;;;1.03;0.63;;;8.60;99.90;;;;;;5057588;28;20461;-78
2022/10/06 02:53:07;;;;;;;0.80;0.63;;;8.60;99.90;;;;;;5057024;28;20491;-79
2022/10/06 02:55:34;;;;;;;1.10;0.70;;;8.60;99.90;;;;;;5058462;28;20464;-79
2022/10/06 02:58:01;;;;;;;3.83;0.80;;;8.70;99.90;;;;;;5062217;28;20599;-79
2022/10/06 03:00:28;;;;;;;1.17;0.70;;;8.90;99.90;;;;;;5062764;28;20940;-78
2022/10/06 03:02:56;;;;;;;2.60;0.60;;;9.00;99.90;;;;;;5064521;28;20548;-78
2022/10/06 03:05:22;;;;;;;0.60;0.50;;;9.10;99.90;;;;;;5060689;28;20535;-78
2022/10/06 03:07:51;;;;;;;2.60;0.60;;;9.10;99.90;;;;;;5064370;28;20495;-78
2022/10/06 03:10:18;;;;;;;1.10;0.60;;;9.00;99.90;;;;;;5064699;28;20548;-78
2022/10/06 03:12:45;;;;;;;0.90;0.50;;;9.00;99.90;;;;;;5060811;28;20509;-78
2022/10/06 03:15:12;;;;;;;1.13;0.40;;;8.90;99.90;;;;;;5062395;28;20487;-78
2022/10/06 03:17:39;;;;;;;1.00;0.60;;;8.80;99.90;;;;;;5064550;28;20969;-78
2022/10/06 03:20:08;;;;;;;0.67;0.60;;;8.80;99.90;;;;;;5061128;28;20460;-78
2022/10/06 03:22:35;;;;;;;3.63;0.80;;;8.70;99.90;;;;;;5059850;28;20553;-79
2022/10/06 03:25:03;;;;;;;1.17;0.60;;;8.80;99.90;;;;;;5061893;28;20467;-79
2022/10/06 03:27:30;;;;;;;0.77;0.77;;;8.70;99.90;;;;;;5065419;28;20471;-79
2022/10/06 03:29:57;;;;;;;1.10;0.70;;;8.60;99.90;;;;;;5061862;28;20936;-79
2022/10/06 03:32:24;;;;;;;1.00;0.83;;;8.60;99.90;;;;;;5059224;28;20487;-78
2022/10/06 03:34:53;;;;;;;0.90;0.70;;;8.60;99.90;;;;;;5063367;28;21143;-78
2022/10/06 03:37:20;;;;;;;1.73;0.60;;;8.70;99.90;;;;;;5062750;28;20451;-79
2022/10/06 03:39:47;;;;;;;2.33;0.93;;;8.70;99.90;;;;;;5063612;28;20516;-78
2022/10/06 03:42:15;;;;;;;1.20;0.73;;;8.80;99.90;;;;;;5059148;28;20496;-79
2022/10/06 03:44:42;;;;;;;0.90;0.80;;;8.70;99.90;;;;;;5063371;28;20455;-78
2022/10/06 03:47:09;;;;;;;2.57;0.90;;;8.70;99.90;;;;;;5060402;28;21014;-78
2022/10/06 03:49:35;;;;;;;0.63;0.60;;;8.60;99.90;;;;;;5059545;28;21045;-78
2022/10/06 03:52:02;;;;;;;0.77;0.77;;;8.60;99.90;;;;;;5060184;28;20553;-78
2022/10/06 03:54:29;;;;;;;1.70;0.80;;;8.50;99.90;;;;;;5058957;28;21220;-78
2022/10/06 03:56:56;;;;;;;0.80;0.60;;;8.40;99.90;;;;;;5057337;28;20556;-78
2022/10/06 03:59:27;;;;;;;0.73;0.70;;;8.30;99.90;;;;;;5062688;28;20479;-78
2022/10/06 04:01:54;;;;;;;1.17;1.07;;;8.30;99.90;;;;;;5063028;28;20528;-78
2022/10/06 04:04:21;;;;;;;1.10;0.90;;;8.30;99.90;;;;;;5065438;28;20541;-78
2022/10/06 04:06:48;;;;;;;1.50;1.13;;;8.20;99.90;;;;;;5071054;28;20463;-78
2022/10/06 04:09:16;;;;;;;3.57;1.00;;;8.20;99.90;;;;;;5061168;28;20514;-78
2022/10/06 04:11:44;;;;;;;2.00;1.20;;;8.10;99.90;;;;;;5061192;28;20556;-78
2022/10/06 04:14:14;;;;;;;0.77;0.70;;;8.10;99.90;;;;;;5059225;28;20463;-79
2022/10/06 04:16:43;;;;;;;3.63;1.00;;;8.10;99.90;;;;;;5060423;28;20468;-79
2022/10/06 04:19:12;;;;;;;1.47;0.87;;;8.20;99.90;;;;;;5058082;28;20514;-78
2022/10/06 04:21:41;;;;;;;4.60;1.90;;;8.20;99.90;;;;;;5062261;28;20487;-78
2022/10/06 04:24:09;;;;;;;1.60;1.00;;;8.20;99.90;;;;;;5061571;28;20463;-78
2022/10/06 04:26:38;;;;;;;5.43;4.93;;;8.30;99.90;;;;;;5058315;28;20467;-78
2022/10/06 04:29:05;;;;;;;1.83;1.73;;;8.30;99.90;;;;;;5058976;28;20456;-78
2022/10/06 04:31:35;;;;;;;1.63;1.50;;;8.30;99.90;;;;;;5061635;28;20576;-78
2022/10/06 04:34:04;;;;;;;2.30;1.30;;;8.30;99.90;;;;;;5060950;28;20456;-78
2022/10/06 04:36:33;;;;;;;1.63;1.40;;;8.30;99.90;;;;;;5060393;28;20556;-78
2022/10/06 04:39:01;;;;;;;1.10;1.00;;;8.30;99.90;;;;;;5061947;28;21165;-78
2022/10/06 04:41:31;;;;;;;4.13;1.50;;;8.30;99.90;;;;;;5059943;28;20455;-78
2022/10/06 04:43:58;;;;;;;1.80;1.50;;;8.20;99.90;;;;;;5059942;28;20462;-78
2022/10/06 04:46:26;;;;;;;5.90;3.10;;;8.20;99.90;;;;;;5062526;28;20548;-78
2022/10/06 04:48:55;;;;;;;35.70;17.83;;;8.20;99.90;;;;;;5064091;28;20502;-79
2022/10/06 04:51:25;;;;;;;2.10;1.60;;;8.30;99.90;;;;;;5059337;28;20503;-78
2022/10/06 04:53:52;;;;;;;2.40;1.40;;;8.30;99.90;;;;;;5060677;28;21020;-78
2022/10/06 04:56:22;;;;;;;1.67;0.70;;;8.20;99.90;;;;;;5061611;28;20440;-78
2022/10/06 04:58:51;;;;;;;3.43;0.87;;;8.20;99.90;;;;;;5062115;28;20575;-79
2022/10/06 05:01:20;;;;;;;1.33;1.23;;;8.20;99.90;;;;;;5057474;28;20631;-78
2022/10/06 05:03:48;;;;;;;1.10;1.03;;;8.10;99.90;;;;;;5061783;28;20936;-78
2022/10/06 05:06:17;;;;;;;0.70;0.70;;;8.10;99.90;;;;;;5060305;28;20557;-78
2022/10/06 05:08:48;;;;;;;0.93;0.90;;;8.00;99.90;;;;;;5060652;28;20866;-78
2022/10/06 05:11:15;;;;;;;4.30;1.60;;;8.00;99.90;;;;;;5061198;28;20463;-78
2022/10/06 05:13:43;;;;;;;3.63;1.20;;;7.90;99.90;;;;;;5059567;28;20786;-78
2022/10/06 05:16:13;;;;;;;1.73;1.20;;;7.90;99.90;;;;;;5063207;28;20443;-78
2022/10/06 05:18:40;;;;;;;1.17;1.00;;;7.80;99.90;;;;;;5063282;28;20537;-79
2022/10/06 05:21:11;;;;;;;1.37;1.23;;;7.70;99.90;;;;;;5057902;28;20492;-79
2022/10/06 05:23:39;;;;;;;1.73;1.00;;;7.60;99.90;;;;;;5060791;28;20942;-78
2022/10/06 05:26:08;;;;;;;1.00;1.00;;;7.60;99.90;;;;;;5062730;28;20447;-78
2022/10/06 05:28:35;;;;;;;1.63;1.23;;;7.50;99.90;;;;;;5062611;28;20536;-78
2022/10/06 05:31:05;;;;;;;1.33;1.13;;;7.50;99.90;;;;;;5061576;28;20471;-78
2022/10/06 05:33:33;;;;;;;5.03;2.30;;;7.60;99.90;;;;;;5063041;28;20455;-78
2022/10/06 05:36:02;;;;;;;2.50;2.30;;;7.70;99.90;;;;;;5061373;28;20495;-78
2022/10/06 05:38:29;;;;;;;1.87;1.73;;;7.80;99.90;;;;;;5061793;28;20463;-78
2022/10/06 05:41:04;;;;;;;2.30;2.10;;;7.80;99.90;;;;;;5061445;28;21012;-78
2022/10/06 05:43:33;;;;;;;2.43;2.23;;;7.90;99.90;;;;;;5061219;28;20463;-78
2022/10/06 05:46:01;;;;;;;2.00;1.73;;;8.00;99.90;;;;;;5057918;28;20471;-78
2022/10/06 05:48:29;;;;;;;2.53;2.00;;;8.00;99.90;;;;;;5063007;28;20556;-78
2022/10/06 05:51:00;;;;;;;5.60;1.60;;;8.10;99.90;;;;;;5063670;28;20481;-78
2022/10/06 05:53:27;;;;;;;2.70;2.50;;;8.10;99.90;;;;;;5058714;28;20468;-78
2022/10/06 05:56:03;;;;;;;5.10;1.90;;;8.10;99.90;;;;;;5063383;28;20444;-77
2022/10/06 05:58:32;;;;;;;1.60;1.50;;;8.10;99.90;;;;;;5061419;28;20491;-78
2022/10/06 06:01:07;;;;;;;1.90;1.80;;;8.10;99.90;;;;;;5053846;28;20464;-78
2022/10/06 06:03:34;;;;;;;4.07;1.33;;;8.10;99.90;;;;;;5049640;28;21069;-78
2022/10/06 06:06:01;;;;;;;3.97;1.60;;;8.20;99.90;;;;;;5061745;28;20497;-78
2022/10/06 06:08:28;;;;;;;2.67;2.47;;;8.20;99.90;;;;;;5064744;28;20443;-77
2022/10/06 06:10:55;;;;;;;2.30;1.47;;;8.20;99.90;;;;;;5060891;28;20525;-78
2022/10/06 06:13:22;;;;;;;1.97;1.87;;;8.20;99.90;;;;;;5060216;28;20550;-79
2022/10/06 06:16:03;;;;;;;1.90;1.23;;;8.20;99.90;;;;;;5074504;28;20494;-78
2022/10/06 06:18:31;;;;;;;2.33;1.70;;;8.30;99.90;;;;;;5056036;28;20451;-78
2022/10/06 06:20:59;;;;;;;2.23;2.03;;;8.40;99.90;;;;;;5055742;28;20475;-78
2022/10/06 06:23:31;;;;;;;1.87;1.63;;;8.50;99.90;;;;;;5058959;28;20492;-78
2022/10/06 06:26:01;;;;;;;3.93;3.67;;;8.60;99.90;;;;;;5060852;28;20560;-78
2022/10/06 06:28:28;;;;;;;3.97;2.63;;;8.70;99.90;;;;;;5056390;28;20484;-78
2022/10/06 06:31:05;;;;;;;3.63;1.70;;;8.80;99.90;;;;;;5056603;28;20995;-78
2022/10/06 06:33:33;;;;;;;3.33;1.93;;;9.00;99.90;;;;;;5064269;28;21054;-78
2022/10/06 06:36:02;;;;;;;1.90;1.70;;;9.10;99.90;;;;;;5057816;28;20467;-77
2022/10/06 06:38:30;;;;;;;2.10;1.90;;;9.20;99.90;;;;;;5056658;28;20463;-78
2022/10/06 06:40:57;;;;;;;2.67;2.47;;;9.30;99.90;;;;;;5047770;28;20484;-78
2022/10/06 06:43:24;;;;;;;2.83;2.07;;;9.50;99.90;;;;;;5053748;28;20553;-78
2022/10/06 06:45:51;;;;;;;2.13;2.03;;;9.70;99.90;;;;;;5057144;28;20552;-78
2022/10/06 06:48:19;;;;;;;3.17;1.90;;;9.80;99.90;;;;;;5053758;28;20483;-78
2022/10/06 06:50:55;;;;;;;3.70;2.33;;;10.00;99.90;;;;;;5062633;28;20499;-78
2022/10/06 06:53:23;;;;;;;3.30;2.10;;;10.10;99.90;;;;;;5056050;28;20477;-78
2022/10/06 06:55:50;;;;;;;2.13;1.70;;;10.20;99.90;;;;;;5055485;28;20581;-79
2022/10/06 06:58:18;;;;;;;2.80;1.77;;;10.40;99.90;;;;;;5055520;28;20480;-79
2022/10/06 07:00:45;;;;;;;1.87;1.77;;;10.60;99.90;;;;;;5062172;28;21160;-80
2022/10/06 07:03:13;;;;;;;1.20;1.10;;;10.80;99.90;;;;;;5062492;28;20475;-78
2022/10/06 07:05:43;;;;;;;2.53;1.67;;;11.00;99.90;;;;;;5065177;28;20499;-78
2022/10/06 07:08:10;;;;;;;2.13;1.13;;;11.20;99.90;;;;;;5056782;28;20469;-78
2022/10/06 07:10:37;;;;;;;1.23;1.13;;;11.20;99.90;;;;;;5051750;28;20461;-78
2022/10/06 07:13:06;;;;;;;1.90;1.40;;;11.40;99.90;;;;;;5051855;28;20496;-78
2022/10/06 07:26:34;;;;;;;1.43;1.27;;;12.20;99.90;;;;;;5063450;28;20467;-79
2022/10/06 07:29:02;;;;;;;1.70;1.27;;;12.20;99.90;;;;;;5056881;28;20491;-79
2022/10/06 07:31:32;;;;;;;1.53;1.10;;;12.30;99.90;;;;;;5062946;28;20489;-79
2022/10/06 07:33:59;;;;;;;1.43;1.30;;;12.60;99.90;;;;;;5064015;28;20480;-79
2022/10/06 07:36:28;;;;;;;3.33;3.03;;;12.70;99.90;;;;;;5062417;28;20968;-80
2022/10/06 07:38:55;;;;;;;3.23;2.23;;;12.90;99.90;;;;;;5060792;28;20538;-79
2022/10/06 07:41:22;;;;;;;4.03;2.47;;;12.90;99.90;;;;;;5064196;28;20489;-79
2022/10/06 07:43:49;;;;;;;2.60;2.40;;;13.00;99.90;;;;;;5062510;28;20553;-79
2022/10/06 07:46:17;;;;;;;4.87;2.20;;;13.30;99.90;;;;;;5059534;28;20490;-79
2022/10/06 07:48:47;;;;;;;4.53;2.43;;;13.30;99.90;;;;;;5062687;28;20978;-79
2022/10/06 07:51:15;;;;;;;3.07;1.80;;;13.40;99.90;;;;;;5056583;28;20494;-80
2022/10/06 07:53:49;;;;;;;2.47;2.13;;;13.60;99.90;;;;;;5057806;28;20466;-78
2022/10/06 07:56:19;;;;;;;3.73;3.00;;;13.80;99.90;;;;;;5057210;28;20559;-78
2022/10/06 07:58:46;;;;;;;2.33;2.17;;;14.00;99.90;;;;;;5055289;28;20985;-78
2022/10/06 08:01:15;;;;;;;3.10;1.90;;;14.00;99.90;;;;;;5050000;28;20575;-78
2022/10/06 08:03:44;;;;;;;2.33;2.13;;;14.30;99.90;;;;;;5051047;28;20490;-78
2022/10/06 08:06:13;;;;;;;3.00;2.10;;;14.30;99.90;;;;;;5054508;28;20458;-77
2022/10/06 08:08:40;;;;;;;2.97;1.93;;;14.50;99.90;;;;;;5062336;28;20545;-77
2022/10/06 08:11:09;;;;;;;1.60;1.50;;;14.50;99.90;;;;;;5059009;28;20486;-78
2022/10/06 08:13:37;;;;;;;2.10;2.00;;;14.50;99.90;;;;;;5062938;28;20497;-78
2022/10/06 08:16:05;;;;;;;1.90;1.70;;;14.50;99.90;;;;;;5060314;28;20512;-78
2022/10/06 08:18:32;;;;;;;1.93;1.57;;;14.80;99.90;;;;;;5069113;28;20537;-78
2022/10/06 08:20:59;;;;;;;4.10;1.30;;;14.90;99.90;;;;;;5065507;28;20512;-78
2022/10/06 08:23:26;;;;;;;3.03;1.47;;;15.00;99.90;;;;;;5064669;28;20465;-77
2022/10/06 08:25:55;;;;;;;2.80;1.60;;;15.20;99.90;;;;;;5070594;28;20454;-78
2022/10/06 08:28:24;;;;;;;2.43;1.57;;;15.30;99.90;;;;;;5060490;28;20889;-78
2022/10/06 08:30:51;;;;;;;1.40;1.30;;;15.30;99.90;;;;;;5059850;28;20562;-78
2022/10/06 08:33:19;;;;;;;2.23;1.53;;;15.50;99.90;;;;;;5059875;28;20553;-78
2022/10/06 08:35:46;;;;;;;2.10;1.80;;;15.70;99.90;;;;;;5061031;28;20475;-78
2022/10/06 08:38:13;;;;;;;1.73;1.50;;;15.80;99.90;;;;;;5061561;28;20496;-78
2022/10/06 08:40:42;;;;;;;2.83;1.30;;;15.80;99.90;;;;;;5052325;28;20578;-78
2022/10/06 08:43:16;;;;;;;1.90;1.70;;;15.80;99.90;;;;;;5048277;28;20481;-78
2022/10/06 08:45:45;;;;;;;1.93;1.83;;;15.80;99.90;;;;;;5051903;28;20542;-78
2022/10/06 08:48:17;;;;;;;1.97;1.60;;;15.90;99.90;;;;;;5053638;28;20692;-78
2022/10/06 08:50:53;;;;;;;3.97;1.80;;;15.90;99.90;;;;;;5060834;28;20931;-78
2022/10/06 08:53:27;;;;;;;4.60;1.63;;;16.00;99.90;;;;;;5056767;28;20550;-78
2022/10/06 08:56:04;;;;;;;5.53;1.60;;;16.20;99.90;;;;;;5063086;28;20465;-77
2022/10/06 08:58:40;;;;;;;1.57;1.47;;;16.20;99.90;;;;;;5062358;28;20829;-77
2022/10/06 09:01:17;;;;;;;2.80;1.50;;;16.30;99.90;;;;;;5058302;28;20520;-77
2022/10/06 09:03:47;;;;;;;3.13;1.77;;;16.40;99.90;;;;;;5064386;28;20454;-77
2022/10/06 09:06:24;;;;;;;5.60;1.20;;;16.30;99.90;;;;;;5057534;28;20498;-77
2022/10/06 09:08:55;;;;;;;2.50;1.63;;;16.40;99.90;;;;;;5064226;28;20517;-78
2022/10/06 09:11:46;;;;;;;2.67;2.47;;;16.40;99.90;;;;;;5058118;28;20484;-78
2022/10/06 09:14:19;;;;;;;1.93;1.80;;;16.60;99.90;;;;;;5058993;28;21063;-77
2022/10/06 09:16:53;;;;;;;2.30;1.20;;;16.80;99.90;;;;;;5060544;28;20444;-77
2022/10/06 09:19:24;;;;;;;1.97;1.67;;;16.90;99.90;;;;;;5051623;28;20459;-78
2022/10/06 09:21:53;;;;;;;2.90;1.70;;;17.10;99.90;;;;;;5058808;28;20633;-78
2022/10/06 09:24:30;;;;;;;2.90;1.90;;;17.20;99.90;;;;;;5058949;28;20526;-78
2022/10/06 09:26:59;;;;;;;2.00;1.90;;;17.50;99.90;;;;;;5060839;28;20498;-77
2022/10/06 09:29:30;;;;;;;2.30;1.60;;;17.50;99.90;;;;;;5048728;28;20541;-77
2022/10/06 09:32:01;;;;;;;2.17;1.90;;;17.70;99.90;;;;;;5059188;28;20817;-77
2022/10/06 09:34:36;;;;;;;2.27;1.53;;;17.70;99.90;;;;;;5063618;28;20490;-77
2022/10/06 09:37:06;;;;;;;2.37;1.37;;;17.50;99.90;;;;;;5056807;28;20508;-77
2022/10/06 09:39:36;;;;;;;2.27;1.40;;;17.20;99.90;;;;;;5062133;28;20464;-77
2022/10/06 09:42:06;;;;;;;2.23;1.57;;;17.40;99.90;;;;;;5067410;28;20551;-77
2022/10/06 09:44:49;;;;;;;2.83;1.90;;;17.70;99.90;;;;;;5059844;28;20447;-77
2022/10/06 09:47:43;;;;;;;1.07;1.03;;;17.80;99.90;;;;;;5042929;28;20952;-77
2022/10/06 09:50:19;;;;;;;1.77;1.27;;;17.80;99.90;;;;;;5053621;28;20967;-77
2022/10/06 09:53:20;;;;;;;3.13;1.13;;;18.00;99.90;;;;;;5055783;28;20512;-77
2022/10/06 09:55:53;;;;;;;1.50;1.40;;;18.30;99.90;;;;;;5064364;28;20454;-77
2022/10/06 09:58:31;;;;;;;2.23;1.90;;;18.30;99.90;;;;;;5057491;28;20456;-77
2022/10/06 10:01:00;;;;;;;2.13;2.03;;;18.40;99.90;;;;;;5060663;28;20594;-77
2022/10/06 10:03:43;;;;;;;2.80;2.10;;;18.20;99.90;;;;;;5059299;28;20919;-77
2022/10/06 10:06:22;;;;;;;2.40;1.73;;;18.10;99.90;;;;;;5065373;28;20447;-77
2022/10/06 10:08:49;;;;;;;1.87;1.77;;;18.30;99.90;;;;;;5067455;28;20474;-77
2022/10/06 10:14:16;;;;;;;1.70;1.60;;;18.20;99.90;;;;;;5062506;28;20458;-77
2022/10/06 10:16:44;;;;;;;4.93;1.90;;;18.40;99.90;;;;;;5067611;28;20540;-77
2022/10/06 10:19:23;;;;;;;2.97;1.80;;;18.50;99.90;;;;;;5066220;28;20497;-77
2022/10/06 10:21:55;;;;;;;2.23;2.03;;;18.70;99.90;;;;;;5066932;28;20483;-77
2022/10/06 10:24:36;;;;;;;1.90;1.60;;;18.70;99.90;;;;;;5055688;28;20534;-78
2022/10/06 10:27:12;;;;;;;2.63;2.07;;;18.60;99.90;;;;;;5060656;28;21058;-77
2022/10/06 10:29:53;;;;;;;2.13;1.93;;;18.60;99.90;;;;;;5071294;28;20466;-77
2022/10/06 10:32:25;;;;;;;4.30;2.10;;;18.60;99.90;;;;;;5079535;28;20465;-77
2022/10/06 10:35:04;;;;;;;2.27;2.07;;;18.80;99.90;;;;;;5072447;28;20449;-77
2022/10/06 10:37:39;;;;;;;2.90;1.67;;;18.80;99.90;;;;;;5056987;28;20555;-77
2022/10/06 10:40:15;;;;;;;2.70;1.33;;;19.00;99.90;;;;;;5066861;28;20498;-77
2022/10/06 10:42:48;;;;;;;2.73;1.87;;;19.20;99.90;;;;;;5067811;28;20497;-77
2022/10/06 10:45:21;;;;;;;1.57;1.30;;;19.30;99.90;;;;;;5060963;28;20560;-77
2022/10/06 10:47:49;;;;;;;4.30;1.40;;;19.40;99.90;;;;;;5062607;28;20499;-77
2022/10/06 10:50:26;;;;;;;2.20;1.97;;;19.40;99.90;;;;;;5065473;28;20519;-77
2022/10/06 10:52:57;;;;;;;1.63;1.53;;;19.30;99.90;;;;;;5060186;28;20536;-77
2022/10/06 10:55:29;;;;;;;1.57;1.47;;;19.40;99.90;;;;;;5065447;28;20440;-76
2022/10/06 10:57:59;;;;;;;2.60;1.70;;;19.40;99.90;;;;;;5063463;28;20556;-77
2022/10/06 11:00:33;;;;;;;4.17;2.30;;;19.40;99.90;;;;;;5061031;28;20487;-77
2022/10/06 11:03:01;;;;;;;3.10;1.87;;;19.40;99.90;;;;;;5066813;28;20475;-77
2022/10/06 11:05:43;;;;;;;1.80;1.70;;;19.50;99.90;;;;;;5065685;28;20475;-77
2022/10/06 11:08:17;;;;;;;4.03;1.50;;;19.50;99.90;;;;;;5053193;28;20483;-77
2022/10/06 11:10:49;;;;;;;2.00;1.37;;;19.70;99.90;;;;;;5063135;28;20444;-76
2022/10/06 11:13:25;;;;;;;3.83;1.63;;;19.50;99.90;;;;;;5062412;28;20467;-76
2022/10/06 11:16:13;;;;;;;2.60;1.77;;;19.60;99.90;;;;;;5066168;28;20483;-76
2022/10/06 11:18:57;;;;;;;2.07;1.97;;;19.80;99.90;;;;;;5061831;28;20468;-76
2022/10/06 11:21:33;;;;;;;2.60;1.50;;;19.60;99.90;;;;;;5060888;28;20518;-76
2022/10/06 11:24:06;;;;;;;2.03;1.03;;;19.60;99.90;;;;;;5064399;28;20471;-76
2022/10/06 11:27:02;;;;;;;1.40;1.30;;;19.80;99.90;;;;;;5064566;28;20444;-76
2022/10/06 11:29:39;;;;;;;2.20;1.50;;;20.10;99.90;;;;;;5061654;28;21237;-76
2022/10/06 11:32:20;;;;;;;1.20;1.10;;;20.10;99.90;;;;;;5066437;28;20449;-76
2022/10/06 11:34:49;;;;;;;1.73;1.30;;;20.20;99.90;;;;;;5060378;28;20443;-75
2022/10/06 11:37:28;;;;;;;1.57;1.47;;;20.10;99.90;;;;;;5064003;28;20459;-75
2022/10/06 11:40:03;;;;;;;2.50;1.50;;;20.20;99.90;;;;;;5063027;28;20983;-75
2022/10/06 11:42:39;;;;;;;6.30;1.90;;;20.30;99.90;;;;;;5064557;28;20516;-75
2022/10/06 11:45:13;;;;;;;5.37;1.60;;;20.50;99.90;;;;;;5063469;28;20539;-76
2022/10/06 11:48:10;;;;;;;2.03;1.37;;;20.60;99.90;;;;;;5064008;28;20465;-76
2022/10/06 11:50:40;;;;;;;2.90;1.63;;;20.60;99.90;;;;;;5063570;28;20764;-76
2022/10/06 11:53:27;;;;;;;1.83;1.20;;;20.50;98.60;;;;;;5064374;28;20570;-76
2022/10/06 11:56:23;;;;;;;2.20;1.80;;;20.50;99.40;;;;;;5061087;28;20493;-76
2022/10/06 11:59:24;;;;;;;1.47;1.37;;;20.60;99.60;;;;;;5066532;28;20483;-76
2022/10/06 12:01:59;;;;;;;4.07;1.97;;;20.60;99.60;;;;;;4979585;28;20611;-76
2022/10/06 12:04:26;;;;;;;2.03;1.37;;;20.50;99.20;;;;;;5049919;28;20465;-76
2022/10/06 12:06:56;;;;;;;1.70;1.60;;;20.50;99.90;;;;;;5066481;28;20470;-76
2022/10/06 12:09:50;;;;;;;1.90;1.80;;;20.50;99.10;;;;;;5063731;28;20478;-76
2022/10/06 12:12:52;;;;;;;2.10;1.90;;;20.60;99.90;;;;;;5061060;28;20561;-76
2022/10/06 12:15:41;;;;;;;1.67;1.57;;;20.70;99.90;;;;;;5062725;28;20454;-77
2022/10/06 12:18:20;;;;;;;3.67;2.60;;;20.70;99.90;;;;;;5065067;28;20552;-76
2022/10/06 12:21:05;;;;;;;1.30;1.20;;;20.90;99.90;;;;;;5054940;28;20514;-76
2022/10/06 12:23:43;;;;;;;2.67;1.63;;;20.80;99.80;;;;;;5060417;28;20481;-76
2022/10/06 12:26:23;;;;;;;2.10;1.90;;;20.70;99.90;;;;;;5051427;28;21250;-76
2022/10/06 12:28:56;;;;;;;1.30;1.20;;;20.90;99.90;;;;;;5057099;28;20499;-76
2022/10/06 12:31:42;;;;;;;2.00;1.80;;;20.90;99.90;;;;;;5049698;28;20454;-77
2022/10/06 12:34:43;;;;;;;2.30;2.00;;;20.90;99.90;;;;;;5058748;28;20560;-76
2022/10/06 12:37:35;;;;;;;3.50;1.50;;;20.80;99.90;;;;;;5055383;28;20503;-77
2022/10/06 12:40:40;;;;;;;2.67;1.70;;;20.90;99.90;;;;;;5068024;28;20559;-76
2022/10/06 12:43:25;;;;;;;3.07;1.50;;;20.80;99.70;;;;;;5057270;28;20454;-77
2022/10/06 12:45:57;;;;;;;1.97;1.83;;;20.70;99.80;;;;;;5060029;28;22491;-77
2022/10/06 12:48:31;;;;;;;1.53;1.43;;;20.70;99.90;;;;;;5053673;28;20494;-77
2022/10/06 12:51:03;;;;;;;2.67;1.67;;;20.70;99.90;;;;;;5055927;28;20466;-77
2022/10/06 12:53:34;;;;;;;4.60;1.27;;;20.60;99.90;;;;;;5049880;28;20982;-77
2022/10/06 12:56:03;;;;;;;3.27;1.30;;;20.50;99.90;;;;;;5052905;28;20488;-77
2022/10/06 12:58:33;;;;;;;3.37;1.67;;;20.60;99.90;;;;;;5048034;28;20513;-77
2022/10/06 13:01:01;;;;;;;3.57;1.47;;;20.60;99.90;;;;;;5058716;28;20518;-76
2022/10/06 13:03:29;;;;;;;1.77;1.60;;;20.60;99.90;;;;;;5053084;28;20494;-77
2022/10/06 13:05:58;;;;;;;2.87;1.70;;;20.80;99.90;;;;;;5054757;28;20552;-77
2022/10/06 13:08:27;;;;;;;1.73;1.20;;;20.70;99.90;;;;;;5053325;28;20870;-77
2022/10/06 13:11:13;;;;;;;2.20;1.40;;;20.60;99.90;;;;;;5057281;28;20451;-77
2022/10/06 13:13:48;;;;;;;2.03;1.47;;;20.40;99.90;;;;;;5049566;28;21161;-77
2022/10/06 13:16:16;;;;;;;1.27;1.00;;;20.30;99.90;;;;;;5056558;28;20524;-77
2022/10/06 13:18:43;;;;;;;6.10;2.17;;;20.40;99.90;;;;;;5060067;28;20552;-77
2022/10/06 13:21:14;;;;;;;6.00;2.07;;;20.60;99.90;;;;;;5056012;28;20587;-78
2022/10/06 13:23:45;;;;;;;7.13;2.27;;;20.80;99.90;;;;;;5060992;28;20958;-78
2022/10/06 13:26:21;;;;;;;3.23;2.57;;;20.80;99.90;;;;;;5057707;28;20491;-78